createdAt,value
2019-05-21T00:00:44.312Z,95769.00
2019-05-21T00:03:15.862Z,95758.00
2019-05-21T00:05:47.110Z,95751.00
2019-05-21T00:08:18.510Z,95758.00
2019-05-21T00:10:49.774Z,95751.00
2019-05-21T00:13:22.048Z,95750.00
2019-05-21T00:15:53.584Z,95757.00
2019-05-21T00:18:25.041Z,95757.00
2019-05-21T00:20:56.718Z,95749.00
2019-05-21T00:23:27.943Z,95753.00
2019-05-21T00:25:59.368Z,95757.00
2019-05-21T00:28:38.686Z,95762.00
2019-05-21T00:32:04.129Z,95755.00
2019-05-21T00:35:44.840Z,95745.00
2019-05-21T00:39:10.157Z,95757.00
2019-05-21T00:42:02.723Z,95753.00
2019-05-21T00:44:39.078Z,95753.00
2019-05-21T00:47:13.050Z,95759.00
2019-05-21T00:49:44.380Z,95766.00
2019-05-21T00:52:15.924Z,95767.00
2019-05-21T00:54:47.148Z,95770.00
2019-05-21T00:57:18.771Z,95766.00
2019-05-21T00:59:50.333Z,95768.00
2019-05-21T01:02:21.624Z,95767.00
2019-05-21T01:05:00.762Z,95759.00
2019-05-21T01:07:26.206Z,95761.00
2019-05-21T01:09:57.871Z,95756.00
2019-05-21T01:12:29.287Z,95762.00
2019-05-21T01:15:00.863Z,95761.00
2019-05-21T01:17:32.125Z,95767.00
2019-05-21T01:20:04.048Z,95750.00
2019-05-21T01:22:35.374Z,95758.00
2019-05-21T01:25:06.712Z,95756.00
2019-05-21T01:27:38.041Z,95766.00
2019-05-21T01:30:09.852Z,95766.00
2019-05-21T01:32:41.160Z,95767.00
2019-05-21T01:35:17.097Z,95773.00
2019-05-21T01:37:45.663Z,95775.00
2019-05-21T01:40:17.177Z,95775.00
2019-05-21T01:42:48.328Z,95778.00
2019-05-21T01:45:19.630Z,95779.00
2019-05-21T01:47:51.210Z,95776.00
2019-05-21T01:50:22.601Z,95782.00
2019-05-21T01:52:55.057Z,95785.00
2019-05-21T01:55:26.358Z,95788.00
2019-05-21T01:57:58.243Z,95782.00
2019-05-21T02:00:29.630Z,95781.00
2019-05-21T02:03:01.267Z,95779.00
2019-05-21T02:05:33.610Z,95792.00
2019-05-21T02:08:04.999Z,95786.00
2019-05-21T02:10:36.381Z,95778.00
2019-05-21T02:13:07.666Z,95803.00
2019-05-21T02:15:39.055Z,95782.00
2019-05-21T02:18:10.180Z,95779.00
2019-05-21T02:20:41.928Z,95783.00
2019-05-21T02:23:13.198Z,95781.00
2019-05-21T02:25:44.587Z,95786.00
2019-05-21T02:28:15.784Z,95783.00
2019-05-21T02:30:47.382Z,95788.00
2019-05-21T02:33:18.972Z,95780.00
2019-05-21T02:35:54.657Z,95784.00
2019-05-21T02:38:23.323Z,95786.00
2019-05-21T02:40:55.275Z,95783.00
2019-05-21T02:43:27.119Z,95789.00
2019-05-21T02:45:58.799Z,95797.00
2019-05-21T02:48:30.041Z,95789.00
2019-05-21T02:51:01.353Z,95792.00
2019-05-21T02:53:34.538Z,95787.00
2019-05-21T02:56:06.191Z,95783.00
2019-05-21T02:58:37.499Z,95784.00
2019-05-21T03:01:25.372Z,95782.00
2019-05-21T03:03:56.629Z,95782.00
2019-05-21T03:06:28.204Z,95780.00
2019-05-21T03:08:59.476Z,95778.00
2019-05-21T03:11:30.994Z,95781.00
2019-05-21T03:14:02.326Z,95780.00
2019-05-21T03:16:33.553Z,95793.00
2019-05-21T03:19:06.002Z,95793.00
2019-05-21T03:21:37.345Z,95794.00
2019-05-21T03:24:08.593Z,95795.00
2019-05-21T03:26:39.746Z,95790.00
2019-05-21T03:29:11.010Z,95780.00
2019-05-21T03:31:42.332Z,95789.00
2019-05-21T03:34:13.539Z,95784.00
2019-05-21T03:36:44.761Z,95792.00
2019-05-21T03:39:19.280Z,95797.00
2019-05-21T03:41:49.346Z,95790.00
2019-05-21T03:44:20.604Z,95790.00
2019-05-21T03:46:52.246Z,95798.00
2019-05-21T03:49:24.145Z,95790.00
2019-05-21T03:51:55.879Z,95807.00
2019-05-21T03:54:27.064Z,95802.00
2019-05-21T03:56:58.585Z,95807.00
2019-05-21T03:59:29.821Z,95806.00
2019-05-21T04:02:02.219Z,95796.00
2019-05-21T04:04:33.565Z,95803.00
2019-05-21T04:07:04.794Z,95800.00
2019-05-21T04:09:36.254Z,95801.00
2019-05-21T04:12:07.963Z,95810.00
2019-05-21T04:14:44.065Z,95810.00
2019-05-21T04:17:28.734Z,95808.00
2019-05-21T04:20:00.075Z,95809.00
2019-05-21T04:22:31.323Z,95812.00
2019-05-21T04:25:02.604Z,95815.00
2019-05-21T04:27:34.408Z,95816.00
2019-05-21T04:30:06.426Z,95829.00
2019-05-21T04:32:37.761Z,95829.00
2019-05-21T04:35:09.072Z,95829.00
2019-05-21T04:37:40.257Z,95835.00
2019-05-21T04:40:11.893Z,95840.00
2019-05-21T04:42:43.703Z,95841.00
2019-05-21T04:45:17.782Z,95837.00
2019-05-21T04:47:49.056Z,95841.00
2019-05-21T04:50:20.438Z,95833.00
2019-05-21T04:52:51.825Z,95850.00
2019-05-21T04:55:23.449Z,95838.00
2019-05-21T04:57:54.705Z,95854.00
2019-05-21T05:00:26.302Z,95848.00
2019-05-21T05:02:57.569Z,95857.00
2019-05-21T05:05:29.293Z,95844.00
2019-05-21T05:08:00.607Z,95847.00
2019-05-21T05:10:31.841Z,95853.00
2019-05-21T05:13:03.156Z,95853.00
2019-05-21T05:15:34.800Z,95857.00
2019-05-21T05:18:06.380Z,95861.00
2019-05-21T05:20:37.977Z,95875.00
2019-05-21T05:23:09.872Z,95860.00
2019-05-21T05:25:41.150Z,95869.00
2019-05-21T05:28:12.574Z,95873.00
2019-05-21T05:30:43.919Z,95886.00
2019-05-21T05:33:15.618Z,95872.00
2019-05-21T05:35:46.764Z,95875.00
2019-05-21T05:38:18.352Z,95889.00
2019-05-21T05:40:49.557Z,95883.00
2019-05-21T05:43:20.849Z,95899.00
2019-05-21T05:45:52.049Z,95895.00
2019-05-21T05:48:24.071Z,95899.00
2019-05-21T05:50:57.833Z,95909.00
2019-05-21T05:53:29.521Z,95906.00
2019-05-21T05:56:01.375Z,95912.00
2019-05-21T05:58:32.523Z,95912.00
2019-05-21T06:01:04.205Z,95918.00
2019-05-21T06:03:35.784Z,95921.00
2019-05-21T06:06:07.073Z,95916.00
2019-05-21T06:08:38.249Z,95916.00
2019-05-21T06:11:09.720Z,95918.00
2019-05-21T06:13:41.314Z,95916.00
2019-05-21T06:16:12.895Z,95914.00
2019-05-21T06:18:44.205Z,95911.00
2019-05-21T06:21:15.663Z,95915.00
2019-05-21T06:23:46.975Z,95909.00
2019-05-21T06:26:18.616Z,95919.00
2019-05-21T06:28:49.936Z,95910.00
2019-05-21T06:31:21.139Z,95916.00
2019-05-21T06:33:52.875Z,95917.00
2019-05-21T06:36:24.097Z,95922.00
2019-05-21T06:38:55.457Z,95917.00
2019-05-21T06:41:27.058Z,95928.00
2019-05-21T06:43:58.519Z,95934.00
2019-05-21T06:46:29.912Z,95938.00
2019-05-21T06:49:01.907Z,95941.00
2019-05-21T06:51:33.540Z,95952.00
2019-05-21T06:54:05.367Z,95950.00
2019-05-21T06:56:36.631Z,95947.00
2019-05-21T06:59:07.964Z,95960.00
2019-05-21T07:01:39.108Z,95951.00
2019-05-21T07:04:10.424Z,95954.00
2019-05-21T07:06:44.673Z,95964.00
2019-05-21T07:09:14.856Z,95961.00
2019-05-21T07:11:46.055Z,95977.00
2019-05-21T07:14:17.392Z,95963.00
2019-05-21T07:16:48.577Z,95970.00
2019-05-21T07:19:21.277Z,95976.00
2019-05-21T07:21:52.565Z,95999.00
2019-05-21T07:24:27.934Z,95978.00
2019-05-21T07:26:57.138Z,95981.00
2019-05-21T07:29:29.124Z,95984.00
2019-05-21T07:32:00.395Z,95988.00
2019-05-21T07:34:32.032Z,95958.00
2019-05-21T07:37:03.232Z,95993.00
2019-05-21T07:39:34.550Z,95997.00
2019-05-21T07:42:06.168Z,95996.00
2019-05-21T07:44:37.822Z,95991.00
2019-05-21T07:47:09.093Z,95995.00
2019-05-21T07:49:40.759Z,95995.00
2019-05-21T07:52:12.429Z,96006.00
2019-05-21T07:54:43.611Z,95996.00
2019-05-21T07:57:14.806Z,96003.00
2019-05-21T07:59:46.034Z,96021.00
2019-05-21T08:02:17.346Z,96025.00
2019-05-21T08:04:48.789Z,96017.00
2019-05-21T08:07:20.092Z,96013.00
2019-05-21T08:09:51.674Z,96023.00
2019-05-21T08:12:38.282Z,96025.00
2019-05-21T08:14:55.964Z,96027.00
2019-05-21T08:17:27.147Z,96035.00
2019-05-21T08:20:08.752Z,96028.00
2019-05-21T08:22:31.528Z,96035.00
2019-05-21T08:25:02.706Z,96032.00
2019-05-21T08:27:33.955Z,96031.00
2019-05-21T08:30:06.286Z,96028.00
2019-05-21T08:32:37.816Z,96024.00
2019-05-21T08:35:09.636Z,96038.00
2019-05-21T08:37:41.246Z,96037.00
2019-05-21T08:40:13.327Z,96049.00
2019-05-21T08:42:44.552Z,96055.00
2019-05-21T08:45:16.482Z,96056.00
2019-05-21T08:47:47.763Z,96054.00
2019-05-21T08:50:19.388Z,96054.00
2019-05-21T08:52:50.597Z,96053.00
2019-05-21T08:55:21.984Z,96053.00
2019-05-21T08:58:06.498Z,96061.00
2019-05-21T09:00:27.179Z,96069.00
2019-05-21T09:02:58.838Z,96063.00
2019-05-21T09:05:32.238Z,96071.00
2019-05-21T09:08:03.112Z,96073.00
2019-05-21T09:10:34.459Z,96075.00
2019-05-21T09:13:06.094Z,96073.00
2019-05-21T09:15:37.729Z,96076.00
2019-05-21T09:18:09.580Z,96080.00
2019-05-21T09:20:40.623Z,96087.00
2019-05-21T09:23:11.978Z,96088.00
2019-05-21T09:25:43.298Z,96096.00
2019-05-21T09:28:14.869Z,96098.00
2019-05-21T09:30:46.176Z,96095.00
2019-05-21T09:33:17.456Z,96132.00
2019-05-21T09:35:48.772Z,96099.00
2019-05-21T09:38:20.358Z,96116.00
2019-05-21T09:40:52.271Z,96112.00
2019-05-21T09:43:23.648Z,96117.00
2019-05-21T09:45:54.939Z,96113.00
2019-05-21T09:48:26.260Z,96124.00
2019-05-21T09:50:57.757Z,96126.00
2019-05-21T09:53:30.262Z,96125.00
2019-05-21T09:56:20.407Z,96131.00
2019-05-21T09:58:54.324Z,96139.00
2019-05-21T10:01:35.650Z,96131.00
2019-05-21T10:04:07.171Z,96132.00
2019-05-21T10:06:38.878Z,96135.00
2019-05-21T10:09:14.022Z,96136.00
2019-05-21T10:11:45.345Z,96138.00
2019-05-21T10:14:17.014Z,96136.00
2019-05-21T10:16:48.234Z,96137.00
2019-05-21T10:19:19.441Z,96144.00
2019-05-21T10:21:50.781Z,96147.00
2019-05-21T10:24:22.097Z,96148.00
2019-05-21T10:26:53.402Z,96146.00
2019-05-21T10:29:24.760Z,96170.00
2019-05-21T10:31:56.116Z,96152.00
2019-05-21T10:34:27.392Z,96164.00
2019-05-21T10:36:58.708Z,96151.00
2019-05-21T10:39:30.124Z,96151.00
2019-05-21T10:42:01.363Z,96158.00
2019-05-21T10:44:32.567Z,96161.00
2019-05-21T10:47:03.855Z,96159.00
2019-05-21T10:49:35.129Z,96162.00
2019-05-21T10:52:06.433Z,96167.00
2019-05-21T10:54:37.739Z,96177.00
2019-05-21T10:57:09.050Z,96184.00
2019-05-21T10:59:41.694Z,96176.00
2019-05-21T11:02:20.568Z,96179.00
2019-05-21T11:04:58.517Z,96182.00
2019-05-21T11:07:29.865Z,96186.00
2019-05-21T11:10:01.355Z,96178.00
2019-05-21T11:12:34.301Z,96189.00
2019-05-21T11:15:06.479Z,96181.00
2019-05-21T11:17:49.946Z,96196.00
2019-05-21T11:20:10.949Z,96195.00
2019-05-21T11:22:43.300Z,96194.00
2019-05-21T11:25:14.668Z,96189.00
2019-05-21T11:27:46.273Z,96217.00
2019-05-21T11:30:18.015Z,96198.00
2019-05-21T11:32:49.331Z,96203.00
2019-05-21T11:35:21.631Z,96201.00
2019-05-21T11:37:52.965Z,96208.00
2019-05-21T11:40:25.311Z,96235.00
2019-05-21T11:42:57.514Z,96208.00
2019-05-21T11:45:32.281Z,96215.00
2019-05-21T11:48:02.185Z,96215.00
2019-05-21T11:50:33.482Z,96222.00
2019-05-21T11:53:04.884Z,96208.00
2019-05-21T11:55:36.134Z,96234.00
2019-05-21T11:58:07.678Z,96227.00
2019-05-21T12:00:39.428Z,96227.00
2019-05-21T12:03:10.754Z,96235.00
2019-05-21T12:05:42.078Z,96229.00
2019-05-21T12:08:14.425Z,96231.00
2019-05-21T12:10:45.725Z,96221.00
2019-05-21T12:13:20.272Z,96230.00
2019-05-21T12:15:50.230Z,96228.00
2019-05-21T12:18:21.484Z,96233.00
2019-05-21T12:20:53.037Z,96231.00
2019-05-21T12:23:24.679Z,96237.00
2019-05-21T12:25:55.967Z,96236.00
2019-05-21T12:28:28.310Z,96242.00
2019-05-21T12:30:59.592Z,96239.00
2019-05-21T12:33:35.029Z,96242.00
2019-05-21T12:36:06.985Z,96242.00
2019-05-21T12:38:38.281Z,96244.00
2019-05-21T12:41:13.553Z,96251.00
2019-05-21T12:43:43.655Z,96249.00
2019-05-21T12:46:14.975Z,96256.00
2019-05-21T12:48:46.318Z,96252.00
2019-05-21T12:51:17.957Z,96261.00
2019-05-21T12:53:49.517Z,96264.00
2019-05-21T12:56:21.060Z,96265.00
2019-05-21T12:58:52.362Z,96257.00
2019-05-21T13:01:23.961Z,96264.00
2019-05-21T13:03:55.638Z,96255.00
2019-05-21T13:06:26.948Z,96272.00
2019-05-21T13:08:59.199Z,96265.00
2019-05-21T13:11:30.593Z,96271.00
2019-05-21T13:14:01.933Z,96268.00
2019-05-21T13:16:33.590Z,96278.00
2019-05-21T13:19:04.945Z,96271.00
2019-05-21T13:21:36.283Z,96276.00
2019-05-21T13:24:07.549Z,96280.00
2019-05-21T13:26:39.145Z,96281.00
2019-05-21T13:29:10.417Z,96299.00
2019-05-21T13:31:41.735Z,96291.00
2019-05-21T13:34:12.973Z,96301.00
2019-05-21T13:36:44.311Z,96308.00
2019-05-21T13:39:15.656Z,96300.00
2019-05-21T13:41:47.369Z,96302.00
2019-05-21T13:44:18.998Z,96306.00
2019-05-21T13:46:50.320Z,96308.00
2019-05-21T13:49:21.913Z,96308.00
2019-05-21T13:51:53.493Z,96308.00
2019-05-21T13:54:24.801Z,96305.00
2019-05-21T13:56:56.087Z,96305.00
2019-05-21T13:59:27.379Z,96312.00
2019-05-21T14:01:59.167Z,96311.00
2019-05-21T14:04:30.487Z,96317.00
2019-05-21T14:07:01.861Z,96311.00
2019-05-21T14:09:33.236Z,96316.00
2019-05-21T14:12:05.376Z,96309.00
2019-05-21T14:14:36.655Z,96308.00
2019-05-21T14:17:07.922Z,96317.00
2019-05-21T14:19:39.631Z,96311.00
2019-05-21T14:22:11.001Z,96309.00
2019-05-21T14:24:42.286Z,96305.00
2019-05-21T14:27:13.889Z,96317.00
2019-05-21T14:29:45.017Z,96310.00
2019-05-21T14:32:16.766Z,96312.00
2019-05-21T14:35:01.028Z,96317.00
2019-05-21T14:37:21.943Z,96316.00
2019-05-21T14:39:53.217Z,96309.00
2019-05-21T14:42:24.661Z,96312.00
2019-05-21T14:44:55.903Z,96310.00
2019-05-21T14:47:27.402Z,96320.00
2019-05-21T14:49:58.819Z,96326.00
2019-05-21T14:52:30.080Z,96333.00
2019-05-21T14:55:01.929Z,96322.00
2019-05-21T14:57:33.907Z,96336.00
2019-05-21T15:00:10.166Z,96344.00
2019-05-21T15:02:42.570Z,96340.00
2019-05-21T15:05:14.158Z,96339.00
2019-05-21T15:07:49.469Z,96344.00
2019-05-21T15:10:18.897Z,96328.00
2019-05-21T15:12:50.439Z,96339.00
2019-05-21T15:15:21.891Z,96338.00
2019-05-21T15:17:53.524Z,96348.00
2019-05-21T15:20:42.487Z,96344.00
2019-05-21T15:23:14.015Z,96344.00
2019-05-21T15:25:46.791Z,96349.00
2019-05-21T15:28:20.846Z,96346.00
2019-05-21T15:30:52.188Z,96348.00
2019-05-21T15:33:23.494Z,96343.00
2019-05-21T15:35:54.806Z,96345.00
2019-05-21T15:38:26.181Z,96343.00
2019-05-21T15:41:09.412Z,96353.00
2019-05-21T15:43:30.921Z,96357.00
2019-05-21T15:46:02.534Z,96358.00
2019-05-21T15:48:34.123Z,96363.00
2019-05-21T15:51:06.256Z,96356.00
2019-05-21T15:53:38.242Z,96349.00
2019-05-21T15:56:09.491Z,96359.00
2019-05-21T15:58:40.720Z,96350.00
2019-05-21T16:01:19.857Z,96359.00
2019-05-21T16:03:50.911Z,96354.00
2019-05-21T16:06:22.287Z,96362.00
2019-05-21T16:08:53.672Z,96351.00
2019-05-21T16:11:28.477Z,96345.00
2019-05-21T16:13:58.120Z,96349.00
2019-05-21T16:16:29.396Z,96348.00
2019-05-21T16:19:01.030Z,96347.00
2019-05-21T16:21:32.290Z,96360.00
2019-05-21T16:24:03.915Z,96361.00
2019-05-21T16:26:35.195Z,96371.00
2019-05-21T16:29:06.484Z,96359.00
2019-05-21T16:31:37.704Z,96362.00
2019-05-21T16:34:09.208Z,96365.00
2019-05-21T16:36:41.988Z,96371.00
2019-05-21T16:39:13.687Z,96370.00
2019-05-21T16:41:45.564Z,96380.00
2019-05-21T16:44:17.005Z,96383.00
2019-05-21T16:46:48.502Z,96379.00
2019-05-21T16:49:20.132Z,96379.00
2019-05-21T16:51:51.809Z,96379.00
2019-05-21T16:54:23.114Z,96382.00
2019-05-21T16:56:54.725Z,96386.00
2019-05-21T16:59:26.400Z,96389.00
2019-05-21T17:01:57.767Z,96389.00
2019-05-21T17:04:29.598Z,96400.00
2019-05-21T17:07:00.930Z,96401.00
2019-05-21T17:09:32.477Z,96400.00
2019-05-21T17:12:04.139Z,96408.00
2019-05-21T17:14:35.438Z,96406.00
2019-05-21T17:17:06.677Z,96414.00
2019-05-21T17:19:37.919Z,96412.00
2019-05-21T17:22:09.274Z,96423.00
2019-05-21T17:24:40.636Z,96423.00
2019-05-21T17:27:12.427Z,96431.00
2019-05-21T17:29:44.072Z,96429.00
2019-05-21T17:32:15.326Z,96440.00
2019-05-21T17:34:46.960Z,96447.00
2019-05-21T17:37:18.245Z,96456.00
2019-05-21T17:39:49.532Z,96461.00
2019-05-21T17:42:20.721Z,96465.00
2019-05-21T17:44:52.403Z,96463.00
2019-05-21T17:47:23.677Z,96469.00
2019-05-21T17:49:54.929Z,96476.00
2019-05-21T17:52:26.305Z,96477.00
2019-05-21T17:54:57.684Z,96467.00
2019-05-21T17:57:31.569Z,96487.00
2019-05-21T18:00:02.948Z,96484.00
2019-05-21T18:02:34.441Z,96477.00
2019-05-21T18:05:07.401Z,96487.00
2019-05-21T18:07:41.949Z,96485.00
2019-05-21T18:10:15.089Z,96503.00
2019-05-21T18:12:46.538Z,96505.00
2019-05-21T18:15:18.568Z,96499.00
2019-05-21T18:17:50.436Z,96494.00
2019-05-21T18:20:22.637Z,96504.00
2019-05-21T18:22:54.231Z,96513.00
2019-05-21T18:25:26.327Z,96516.00
2019-05-21T18:27:57.961Z,96518.00
2019-05-21T18:30:30.427Z,96529.00
2019-05-21T18:33:02.100Z,96521.00
2019-05-21T18:35:33.643Z,96527.00
2019-05-21T18:38:05.045Z,96540.00
2019-05-21T18:40:36.779Z,96536.00
2019-05-21T18:43:08.337Z,96550.00
2019-05-21T18:45:41.455Z,96551.00
2019-05-21T18:48:13.586Z,96555.00
2019-05-21T18:50:44.980Z,96558.00
2019-05-21T18:53:16.438Z,96562.00
2019-05-21T18:55:48.083Z,96560.00
2019-05-21T18:58:20.484Z,96563.00
2019-05-21T19:00:52.121Z,96568.00
2019-05-21T19:03:26.630Z,96565.00
2019-05-21T19:05:56.684Z,96581.00
2019-05-21T19:08:28.236Z,96582.00
2019-05-21T19:10:59.624Z,96594.00
2019-05-21T19:13:31.097Z,96596.00
2019-05-21T19:16:02.602Z,96595.00
2019-05-21T19:18:34.179Z,96604.00
2019-05-21T19:21:06.181Z,96611.00
2019-05-21T19:23:37.960Z,96610.00
2019-05-21T19:26:09.375Z,96627.00
2019-05-21T19:28:41.072Z,96630.00
2019-05-21T19:31:12.427Z,96617.00
2019-05-21T19:33:44.172Z,96629.00
2019-05-21T19:36:15.492Z,96624.00
2019-05-21T19:38:47.112Z,96639.00
2019-05-21T19:41:18.375Z,96636.00
2019-05-21T19:43:49.932Z,96641.00
2019-05-21T19:46:21.420Z,96653.00
2019-05-21T19:48:52.880Z,96656.00
2019-05-21T19:51:24.119Z,96663.00
2019-05-21T19:53:55.465Z,96673.00
2019-05-21T19:56:26.855Z,96672.00
2019-05-21T19:58:58.790Z,96668.00
2019-05-21T20:01:30.557Z,96685.00
2019-05-21T20:04:01.936Z,96691.00
2019-05-21T20:06:34.255Z,96702.00
2019-05-21T20:09:09.245Z,96695.00
2019-05-21T20:11:44.270Z,96697.00
2019-05-21T20:14:15.880Z,96706.00
2019-05-21T20:16:47.839Z,96699.00
2019-05-21T20:19:21.877Z,96699.00
2019-05-21T20:21:53.970Z,96716.00
2019-05-21T20:24:25.543Z,96704.00
2019-05-21T20:26:58.101Z,96714.00
2019-05-21T20:29:29.967Z,96724.00
2019-05-21T20:32:01.663Z,96709.00
2019-05-21T20:34:32.938Z,96705.00
2019-05-21T20:37:05.915Z,96712.00
2019-05-21T20:39:38.879Z,96715.00
2019-05-21T20:42:13.320Z,96714.00
2019-05-21T20:44:44.803Z,96723.00
2019-05-21T20:47:18.734Z,96727.00
2019-05-21T20:49:50.800Z,96730.00
2019-05-21T20:52:22.257Z,96735.00
2019-05-21T20:54:56.516Z,96730.00
2019-05-21T20:57:29.174Z,96728.00
2019-05-21T21:00:00.388Z,96723.00
2019-05-21T21:02:32.408Z,96728.00
2019-05-21T21:05:04.084Z,96730.00
2019-05-21T21:07:37.380Z,96727.00
2019-05-21T21:10:10.903Z,96733.00
2019-05-21T21:12:43.709Z,96728.00
2019-05-21T21:15:15.408Z,96727.00
2019-05-21T21:17:46.549Z,96720.00
2019-05-21T21:20:17.796Z,96725.00
2019-05-21T21:22:49.118Z,96728.00
2019-05-21T21:25:24.836Z,96736.00
2019-05-21T21:27:56.993Z,96744.00
2019-05-21T21:30:29.451Z,96731.00
2019-05-21T21:33:02.054Z,96742.00
2019-05-21T21:35:34.610Z,96733.00
2019-05-21T21:38:07.773Z,96744.00
2019-05-21T21:40:39.419Z,96744.00
2019-05-21T21:43:10.742Z,96735.00
2019-05-21T21:45:43.620Z,96746.00
2019-05-21T21:48:16.216Z,96749.00
2019-05-21T21:50:48.763Z,96754.00
2019-05-21T21:53:21.247Z,96745.00
2019-05-21T21:55:53.255Z,96752.00
2019-05-21T21:58:24.678Z,96746.00
2019-05-21T22:01:52.290Z,96751.00
2019-05-21T22:04:34.189Z,96753.00
2019-05-21T22:07:06.917Z,96758.00
2019-05-21T22:09:39.907Z,96750.00
2019-05-21T22:12:12.997Z,96758.00
2019-05-21T22:14:51.356Z,96744.00
2019-05-21T22:17:18.246Z,96752.00
2019-05-21T22:19:50.162Z,96755.00
2019-05-21T22:22:21.483Z,96753.00
2019-05-21T22:24:52.798Z,96744.00
2019-05-21T22:27:24.429Z,96750.00
2019-05-21T22:29:55.839Z,96749.00
2019-05-21T22:32:27.597Z,96757.00
2019-05-21T22:34:59.089Z,96750.00
2019-05-21T22:37:31.304Z,96745.00
2019-05-21T22:40:03.242Z,96752.00
2019-05-21T22:42:35.587Z,96748.00
2019-05-21T22:45:09.215Z,96750.00
2019-05-21T22:47:40.442Z,96754.00
2019-05-21T22:50:12.703Z,96755.00
2019-05-21T22:52:44.305Z,96756.00
2019-05-21T22:55:16.221Z,96773.00
2019-05-21T22:57:48.319Z,96754.00
2019-05-21T23:00:20.761Z,96761.00
2019-05-21T23:02:52.956Z,96751.00
2019-05-21T23:05:24.563Z,96755.00
2019-05-21T23:07:55.958Z,96762.00
2019-05-21T23:10:27.775Z,96761.00
2019-05-21T23:12:59.044Z,96761.00
2019-05-21T23:15:30.613Z,96764.00
2019-05-21T23:18:09.963Z,96776.00
2019-05-21T23:21:02.793Z,96765.00
2019-05-21T23:23:35.753Z,96784.00
2019-05-21T23:26:08.775Z,96762.00
2019-05-21T23:28:41.251Z,96776.00
2019-05-21T23:31:13.157Z,96769.00
2019-05-21T23:33:44.470Z,96770.00
2019-05-21T23:36:15.760Z,96770.00
2019-05-21T23:38:49.365Z,96776.00
2019-05-21T23:41:23.057Z,96769.00
2019-05-21T23:43:54.750Z,96773.00
2019-05-21T23:46:27.119Z,96768.00
2019-05-21T23:48:59.356Z,96769.00
2019-05-21T23:51:30.593Z,96771.00
2019-05-21T23:54:02.096Z,96777.00
2019-05-21T23:56:34.053Z,96770.00
2019-05-21T23:59:06.203Z,96773.00
